Latest Weather Observations for Millendon (Swan Valley)

IDW60901

Issued at 8:11 pm WST Thursday 22 June 2017 (issued every 10 minutes, with the page automatically refreshed every 10 minutes)

About weather observations | Map of Perth area stations | Latest observations for Perth area | Other Formats
Station Details ID: 009281 Name: SWAN VALLEY Lat: -31.81 Lon: 116.02 Height: 16.0 m
Data from the previous 72 hours. | See also: Recent months for locations in Western Australia
Date/Time
WST
Temp
°C
App
Temp
°C
Dew
Point
°C
Rel
Hum
%
Delta-T
°C
Wind Press
QNH
hPa
Press
MSL
hPa
Rain since
9am
mm
Dir  Spd
km/h
Gust
km/h
Spd
kts
Gust
kts
22/08:00pm 14.2 11.8 11.4 83 1.5 SSW 15 28 8 15 - - 0.6
22/07:30pm 14.5 11.6 11.1 80 1.8 SW 17 30 9 16 - - 0.6
22/07:00pm 14.7 11.9 11.3 80 1.8 SW 17 33 9 18 - - 0.6
22/06:30pm 14.8 12.4 11.4 80 1.8 SW 15 28 8 15 - - 0.6
22/06:00pm 15.0 12.7 11.6 80 1.8 SW 15 26 8 14 - - 0.6
22/05:30pm 15.3 12.1 11.9 80 1.8 SW 20 35 11 19 - - 0.6
22/05:00pm 15.4 13.2 12.2 81 1.7 WSW 15 22 8 12 - - 0.6
22/04:30pm 15.5 13.6 11.9 79 2.0 WSW 13 20 7 11 - - 0.6
22/04:00pm 15.6 14.3 12.4 81 1.8 W 11 17 6 9 - - 0.6
22/03:30pm 15.9 13.8 12.3 79 2.0 W 15 26 8 14 - - 0.6
22/03:00pm 15.9 12.9 11.9 77 2.2 WSW 19 28 10 15 - - 0.6
22/02:30pm 16.2 14.1 12.4 78 2.1 WSW 15 20 8 11 - - 0.6
22/02:00pm 16.3 13.9 12.7 79 2.0 WSW 17 28 9 15 - - 0.6
22/01:30pm 16.4 13.1 12.8 79 2.0 W 22 35 12 19 - - 0.6
22/01:00pm 16.5 13.8 12.8 79 2.1 WSW 19 32 10 17 - - 0.6
22/12:30pm 16.7 14.0 13.4 81 1.9 W 20 35 11 19 - - 0.6
22/12:00pm 16.7 14.4 14.0 84 1.5 WNW 19 26 10 14 - - 0.6
22/11:30am 16.7 13.7 13.8 83 1.6 WNW 22 35 12 19 - - 0.6
22/11:00am 16.8 15.1 14.6 87 1.3 WNW 17 32 9 17 - - 0.6
22/10:30am 17.0 15.5 14.3 84 1.5 WNW 15 28 8 15 - - 0.4
22/10:00am 17.1 15.1 13.8 81 1.9 WNW 17 32 9 17 - - 0.4
22/09:30am 16.8 15.4 14.4 86 1.4 NW 15 22 8 12 - - 0.2
22/09:00am 16.4 14.1 14.2 87 1.3 NW 19 33 10 18 - - 25.4
22/08:30am 15.8 13.4 14.5 92 0.7 WNW 20 39 11 21 - - 25.4
22/08:00am 16.1 14.7 14.5 90 0.9 NW 15 26 8 14 - - 23.4
22/07:30am 14.8 12.9 14.3 97 0.3 N 17 28 9 15 - - 23.2
22/07:00am 14.4 11.8 13.9 97 0.3 N 20 32 11 17 - - 23.2
22/06:30am 14.2 10.8 13.6 96 0.3 N 24 37 13 20 - - 19.2
22/06:00am 14.0 9.0 13.5 97 0.3 N 32 46 17 25 - - 17.0
22/05:50am 14.3 10.0 13.3 94 0.6 N 28 48 15 26 - - 15.6
22/05:30am 13.9 10.4 13.3 96 0.3 N 24 37 13 20 - - 13.8
22/05:00am 13.8 10.2 13.0 95 0.4 N 24 43 13 23 - - 13.0
22/04:30am 13.6 9.9 12.8 95 0.4 N 24 39 13 21 - - 12.2
22/04:00am 13.4 10.4 12.5 94 0.5 N 20 32 11 17 - - 10.0
22/03:30am 13.4 10.2 11.8 90 0.9 N 20 32 11 17 - - 9.6
22/03:00am 13.3 9.9 12.4 94 0.5 N 22 32 12 17 - - 9.6
22/02:30am 13.0 9.9 12.2 95 0.4 N 20 33 11 18 - - 9.2
22/02:00am 13.1 10.1 12.5 96 0.3 N 20 33 11 18 - - 9.2
22/01:30am 13.0 10.6 12.5 97 0.3 N 17 26 9 14 - - 9.2
22/01:00am 13.0 10.6 12.5 97 0.3 N 17 26 9 14 - - 7.6
22/12:30am 12.9 11.2 12.3 96 0.3 N 13 20 7 11 - - 6.6
22/12:00am 13.0 10.9 12.4 96 0.3 N 15 28 8 15 - - 5.8
 
Date/Time
WST
Temp
°C
App
Temp
°C
Dew
Point
°C
Rel
Hum
%
Delta-T
°C
Wind Press
QNH
hPa
Press
MSL
hPa
Rain since
9am
mm
Dir  Spd
km/h
Gust
km/h
Spd
kts
Gust
kts
21/11:30pm 13.1 10.2 12.3 95 0.4 N 19 30 10 16 - - 3.4
21/11:00pm 13.0 10.5 12.2 95 0.4 N 17 28 9 15 - - 3.0
21/10:30pm 12.9 10.7 12.1 95 0.4 N 15 24 8 13 - - 1.4
21/10:00pm 12.9 9.9 12.0 94 0.5 N 19 32 10 17 - - 1.0
21/09:30pm 13.9 11.0 11.1 83 1.5 N 17 24 9 13 - - 0.2
21/09:00pm 13.6 10.7 11.1 85 1.3 N 17 26 9 14 - - 0.2
21/08:30pm 13.8 10.8 10.8 82 1.6 N 17 26 9 14 - - 0.2
21/08:00pm 14.0 11.7 10.6 80 1.8 N 13 20 7 11 - - 0.2
21/07:30pm 14.3 12.0 10.5 78 2.0 N 13 19 7 10 - - 0.2
21/07:00pm 14.5 12.3 10.7 78 2.0 N 13 22 7 12 - - 0.2
21/06:30pm 14.8 12.4 10.2 74 2.4 N 13 19 7 10 - - 0.2
21/06:00pm 14.9 13.1 10.7 76 2.2 N 11 15 6 8 - - 0.2
21/05:30pm 14.9 13.5 10.9 77 2.1 N 9 17 5 9 - - 0.2
21/05:00pm 15.6 13.3 10.6 72 2.6 N 13 24 7 13 - - 0.2
21/04:30pm 17.4 14.6 11.2 67 3.4 NW 17 28 9 15 - - 0.2
21/04:00pm 17.4 14.4 10.8 65 3.5 WNW 17 24 9 13 - - 0.2
21/03:30pm 18.5 14.3 9.6 56 4.7 NW 22 33 12 18 - - 0.2
21/03:00pm 19.0 15.3 9.5 54 5.0 WNW 19 33 10 18 - - 0.2
21/02:30pm 19.6 15.7 8.6 49 5.7 WNW 19 30 10 16 - - 0.2
21/02:00pm 19.7 15.2 8.7 49 5.8 WNW 22 33 12 18 - - 0.2
21/01:30pm 19.0 14.7 9.5 54 5.0 NW 22 32 12 17 - - 0.2
21/01:00pm 18.8 15.3 10.1 57 4.6 NNW 19 28 10 15 - - 0.0
21/12:30pm 18.4 16.4 11.5 64 3.8 NW 13 22 7 12 - - 0.0
21/12:00pm 19.3 16.7 10.8 58 4.6 N 15 20 8 11 - - 0.0
21/11:30am 18.2 15.7 11.0 63 3.9 NNW 15 24 8 13 - - 0.0
21/11:00am 17.3 15.8 11.8 70 3.0 NW 11 19 6 10 - - 0.0
21/10:30am 17.6 15.7 11.9 69 3.1 N 13 20 7 11 - - 0.0
21/10:00am 16.5 14.4 12.5 77 2.2 N 15 20 8 11 - - 0.0
21/09:30am 15.1 14.0 12.1 82 1.6 N 9 13 5 7 - - 0.0
21/09:00am 13.5 13.6 12.7 95 0.4 N 4 7 2 4 - - 0.0
21/08:30am 10.8 10.3 10.8 100 0.0 NW 4 6 2 3 - - 0.0
21/08:00am 8.7 8.0 8.7 100 0.0 NNE 2 4 1 2 - - 0.0
21/07:30am 9.0 8.0 9.0 100 0.0 NNE 4 6 2 3 - - 0.0
21/07:00am 9.2 8.3 9.2 100 0.0 N 4 6 2 3 - - 0.0
21/06:30am 8.6 7.5 8.6 100 0.0 NNE 4 6 2 3 - - 0.0
21/06:00am 8.2 7.4 8.2 100 0.0 NNW 2 7 1 4 - - 0.0
21/05:30am 8.3 7.2 8.3 100 0.0 N 4 6 2 3 - - 0.0
21/05:00am 8.6 7.5 8.6 100 0.0 N 4 4 2 2 - - 0.0
21/04:30am 8.6 7.5 8.6 100 0.0 NNW 4 6 2 3 - - 0.0
21/04:00am 9.0 7.6 8.9 99 0.0 NNW 6 6 3 3 - - 0.0
21/03:30am 9.8 9.0 9.5 98 0.1 N 4 6 2 3 - - 0.0
21/03:00am 11.1 10.6 10.6 97 0.3 N 4 6 2 3 - - 0.0
21/02:30am 10.8 10.0 9.6 92 0.6 NNW 4 4 2 2 - - 0.0
21/02:00am 12.1 11.2 10.7 91 0.7 N 6 7 3 4 - - 0.0
21/01:30am 13.1 12.2 11.2 88 1.0 NNE 7 11 4 6 - - 0.0
21/01:00am 11.9 10.8 10.6 92 0.7 N 7 11 4 6 - - 0.0
21/12:30am 10.6 10.0 10.3 98 0.2 N 4 7 2 4 - - 0.0
21/12:00am 10.1 10.0 9.6 97 0.3 CALM 0 6 0 3 - - 0.0
 
Date/Time
WST
Temp
°C
App
Temp
°C
Dew
Point
°C
Rel
Hum
%
Delta-T
°C
Wind Press
QNH
hPa
Press
MSL
hPa
Rain since
9am
mm
Dir  Spd
km/h
Gust
km/h
Spd
kts
Gust
kts
20/11:30pm 10.7 10.8 10.2 97 0.3 CALM 0 0 0 0 - - 0.0
20/11:00pm 11.3 11.5 10.5 95 0.4 CALM 0 0 0 0 - - 0.0
20/10:30pm 11.8 11.7 10.9 94 0.5 NE 2 4 1 2 - - 0.0
20/10:00pm 13.3 13.7 11.2 87 1.1 CALM 0 2 0 1 - - 0.0
20/09:30pm 14.7 14.2 12.0 84 1.5 NNE 6 9 3 5 - - 0.0
20/09:00pm 14.3 14.3 12.3 88 1.1 NNE 4 6 2 3 - - 0.0
20/08:30pm 14.7 15.0 12.2 85 1.4 NNE 2 6 1 3 - - 0.0
20/08:00pm 15.7 15.8 12.6 82 1.7 NNE 4 6 2 3 - - 0.0
20/07:30pm 15.0 15.4 12.5 85 1.4 NE 2 6 1 3 - - 0.0
20/07:00pm 15.7 16.5 12.5 81 1.8 CALM 0 0 0 0 - - 0.0
20/06:30pm 17.1 18.0 12.8 76 2.4 CALM 0 0 0 0 - - 0.0
20/06:00pm 18.3 18.9 13.0 71 3.0 NNW 2 6 1 3 - - 0.0
20/05:30pm 18.9 18.6 13.3 70 3.2 WNW 7 11 4 6 - - 0.0
20/05:00pm 19.4 18.7 13.1 67 3.6 W 9 15 5 8 - - 0.0
20/04:30pm 20.5 19.4 13.2 63 4.2 W 11 17 6 9 - - 0.0
20/04:00pm 21.1 19.7 13.3 61 4.5 W 13 19 7 10 - - 0.0
20/03:30pm 21.6 20.5 13.0 58 4.9 W 11 19 6 10 - - 0.0
20/03:00pm 22.5 20.4 9.6 44 7.0 NW 11 17 6 9 - - 0.0
20/02:30pm 22.7 20.0 7.3 37 8.0 NW 11 19 6 10 - - 0.0
20/02:00pm 22.8 20.4 8.5 40 7.6 WNW 11 22 6 12 - - 0.0
20/01:30pm 22.9 19.8 7.4 37 8.1 NW 13 20 7 11 - - 0.0
20/01:00pm 23.0 20.9 8.3 39 7.8 NNW 9 17 5 9 - - 0.0
20/12:30pm 22.4 19.8 7.8 39 7.6 N 11 17 6 9 - - 0.0
20/12:00pm 21.4 18.9 8.0 42 7.0 N 11 15 6 8 - - 0.0
20/11:30am 21.3 19.8 9.2 46 6.4 NNE 7 17 4 9 - - 0.0
20/11:00am 20.3 18.8 9.2 49 5.9 N 7 13 4 7 - - 0.0
20/10:30am 19.4 18.7 10.1 55 5.0 NW 4 7 2 4 - - 0.0
20/10:00am 16.7 16.9 11.8 73 2.7 NW 2 4 1 2 - - 0.0
20/09:30am 14.7 14.5 11.8 83 1.6 NNW 4 6 2 3 - - 0.0
20/09:00am 12.9 13.4 11.6 92 0.7 CALM 0 4 0 2 - - 0.0
20/08:30am 10.4 10.1 10.1 98 0.2 WSW 2 4 1 2 - - 0.0
20/08:00am 8.8 8.2 8.8 100 0.0 SW 2 6 1 3 - - 0.0
20/07:30am 8.0 6.4 8.0 100 0.0 SSW 6 9 3 5 - - 0.0
20/07:00am 7.6 7.0 7.6 100 0.0 CALM 0 4 0 2 - - 0.0
20/06:30am 7.4 6.8 7.4 100 0.0 CALM 0 0 0 0 - - 0.0
20/06:00am 6.2 5.3 6.2 100 0.0 CALM 0 0 0 0 - - 0.0
20/05:30am 6.5 5.7 6.5 100 0.0 CALM 0 0 0 0 - - 0.0
20/05:00am 7.0 6.3 7.0 100 0.0 CALM 0 2 0 1 - - 0.0
20/04:30am 7.7 7.2 7.7 100 0.0 CALM 0 0 0 0 - - 0.0
20/04:00am 8.1 7.7 8.1 100 0.0 CALM 0 2 0 1 - - 0.0
20/03:30am 7.6 7.0 7.6 100 0.0 CALM 0 0 0 0 - - 0.0
20/03:00am 7.8 7.3 7.8 100 0.0 CALM 0 0 0 0 - - 0.0
20/02:30am 8.3 7.2 8.3 100 0.0 N 4 6 2 3 - - 0.0
20/02:00am 8.3 7.2 8.3 100 0.0 N 4 4 2 2 - - 0.0
20/01:30am 8.5 8.1 8.4 99 0.0 CALM 0 0 0 0 - - 0.0
20/01:00am 9.0 8.8 8.9 99 0.0 CALM 0 0 0 0 - - 0.0
20/12:30am 9.4 9.2 9.1 98 0.1 CALM 0 0 0 0 - - 0.0
20/12:00am 10.2 10.2 9.9 98 0.2 CALM 0 0 0 0 - - 0.0
 
Date/Time
WST
Temp
°C
App
Temp
°C
Dew
Point
°C
Rel
Hum
%
Delta-T
°C
Wind Press
QNH
hPa
Press
MSL
hPa
Rain since
9am
mm
Dir  Spd
km/h
Gust
km/h
Spd
kts
Gust
kts
19/11:30pm 10.6 10.7 10.3 98 0.2 CALM 0 6 0 3 - - 0.0
19/11:00pm 11.0 11.2 10.5 97 0.3 CALM 0 0 0 0 - - 0.0
19/10:30pm 11.9 12.3 11.1 95 0.4 CALM 0 0 0 0 - - 0.0
19/10:00pm 12.5 13.0 11.6 94 0.5 CALM 0 0 0 0 - - 0.0
19/09:30pm 12.9 13.5 11.8 93 0.6 CALM 0 0 0 0 - - 0.0
19/09:00pm 13.7 14.4 12.3 91 0.8 CALM 0 0 0 0 - - 0.0
19/08:30pm 13.8 14.5 12.2 90 0.9 CALM 0 0 0 0 - - 0.0

Latest Capital City Observations: Canberra | Sydney | Melbourne | Brisbane | Adelaide | Perth | Hobart | Darwin

Other Formats:

Comma delimited format used in spreadsheet applications
http://www.bom.gov.au/fwo/IDW60901/IDW60901.94795.axf

JavaScript Object Notation format (JSON) in row-major order
http://www.bom.gov.au/fwo/IDW60901/IDW60901.94795.json